Time;durP1;ratioP1;P1;durP2;ratioP2;P2;SDS_P1;SDS_P2;PMS_P1;PMS_P2;Temp;Humidity;BMP_temperature;BMP_pressure;BME280_temperature;BME280_humidity;BME280_pressure;Samples;Min_cycle;Max_cycle;Signal;HPM_P1;HPM_P2
2024/02/02 00:00:07;;;;;;;9.40;8.80;;;9.70;24.10;;;;;;6306765;22;20156;-77
2024/02/02 00:02:37;;;;;;;8.93;8.30;;;9.40;23.50;;;;;;6306468;22;20150;-79
2024/02/02 00:05:04;;;;;;;8.67;8.07;;;9.10;25.10;;;;;;6306791;22;20364;-78
2024/02/02 00:07:29;;;;;;;8.90;8.30;;;8.60;25.70;;;;;;6279961;22;20942;-77
2024/02/02 00:09:56;;;;;;;9.10;8.60;;;8.30;26.70;;;;;;6280348;22;20432;-78
2024/02/02 00:12:22;;;;;;;9.33;8.73;;;8.30;26.90;;;;;;6307061;22;20142;-77
2024/02/02 00:14:48;;;;;;;9.27;8.40;;;8.50;26.80;;;;;;6279344;22;20390;-77
2024/02/02 00:17:13;;;;;;;7.90;7.20;;;8.70;25.80;;;;;;6277541;22;20388;-77
2024/02/02 00:19:39;;;;;;;9.87;9.03;;;8.80;25.20;;;;;;6306350;22;20220;-79
2024/02/02 00:22:06;;;;;;;9.53;8.57;;;9.00;25.20;;;;;;6278432;22;20150;-80
2024/02/02 00:24:31;;;;;;;8.43;7.83;;;9.20;24.40;;;;;;6306066;22;20380;-78
2024/02/02 00:26:56;;;;;;;8.97;8.37;;;9.40;23.90;;;;;;6305431;22;20376;-78
2024/02/02 00:29:22;;;;;;;9.30;8.70;;;9.50;23.60;;;;;;6279441;22;20511;-77
2024/02/02 00:31:47;;;;;;;8.23;7.63;;;9.60;23.70;;;;;;6306406;22;20256;-77
2024/02/02 00:34:13;;;;;;;9.73;9.07;;;9.70;23.20;;;;;;6305562;22;20154;-78
2024/02/02 00:36:39;;;;;;;9.50;8.70;;;9.70;22.40;;;;;;6305953;22;20204;-77
2024/02/02 00:39:04;;;;;;;8.43;7.93;;;9.80;22.40;;;;;;6305601;22;20240;-76
2024/02/02 00:41:30;;;;;;;9.33;8.73;;;9.80;22.40;;;;;;6305777;22;20157;-79
2024/02/02 00:43:56;;;;;;;9.20;8.70;;;9.80;22.30;;;;;;6306330;22;20495;-78
2024/02/02 00:46:22;;;;;;;10.00;9.30;;;9.80;22.00;;;;;;6278903;22;20161;-76
2024/02/02 00:48:47;;;;;;;9.23;8.80;;;9.90;22.50;;;;;;6306957;22;20392;-78
2024/02/02 00:51:13;;;;;;;9.57;8.77;;;9.80;22.50;;;;;;6309787;22;20472;-79
2024/02/02 00:53:38;;;;;;;9.73;9.20;;;9.50;23.20;;;;;;6289486;22;20165;-80
2024/02/02 00:56:04;;;;;;;9.63;9.03;;;9.00;24.80;;;;;;6292960;22;20579;-80
2024/02/02 00:58:30;;;;;;;9.93;9.23;;;8.70;25.80;;;;;;6324719;22;20256;-80
2024/02/02 01:00:55;;;;;;;8.40;7.53;;;8.50;26.40;;;;;;6298550;22;20213;-81
2024/02/02 01:03:21;;;;;;;8.57;7.90;;;8.30;27.10;;;;;;6290975;22;20525;-81
2024/02/02 01:05:47;;;;;;;8.77;7.90;;;8.20;26.70;;;;;;6283122;22;20201;-80
2024/02/02 01:08:13;;;;;;;8.20;7.70;;;8.10;25.80;;;;;;6311131;22;20177;-81
2024/02/02 01:10:38;;;;;;;8.10;7.37;;;8.10;25.50;;;;;;6311609;22;20736;-79
2024/02/02 01:13:04;;;;;;;8.43;7.63;;;7.80;25.70;;;;;;6310192;22;20552;-81
2024/02/02 01:15:30;;;;;;;7.43;7.03;;;7.60;25.70;;;;;;6282971;22;20449;-80
2024/02/02 01:17:57;;;;;;;9.63;7.97;;;7.50;25.90;;;;;;6310506;22;20189;-78
2024/02/02 01:20:25;;;;;;;8.77;7.90;;;7.40;26.30;;;;;;6313572;22;20146;-79
2024/02/02 01:22:51;;;;;;;8.60;8.00;;;7.60;26.50;;;;;;6287651;22;20438;-78
2024/02/02 01:25:16;;;;;;;8.23;7.53;;;7.90;25.90;;;;;;6314544;22;20376;-80
2024/02/02 01:27:44;;;;;;;7.87;7.30;;;8.20;24.90;;;;;;6314468;22;20162;-77
2024/02/02 01:30:12;;;;;;;8.33;7.67;;;8.50;24.70;;;;;;6314373;22;20165;-78
2024/02/02 01:32:38;;;;;;;8.57;7.87;;;8.40;25.00;;;;;;6317572;22;20373;-77
2024/02/02 01:35:04;;;;;;;8.30;7.80;;;8.20;25.60;;;;;;6317601;22;20375;-78
2024/02/02 01:37:30;;;;;;;8.33;7.60;;;8.00;26.00;;;;;;6313747;22;20368;-78
2024/02/02 01:39:56;;;;;;;7.80;7.40;;;8.10;26.70;;;;;;6282926;22;20523;-80
2024/02/02 01:42:22;;;;;;;9.47;8.60;;;8.10;26.20;;;;;;6309702;22;20546;-80
2024/02/02 01:44:48;;;;;;;8.43;7.93;;;8.20;25.90;;;;;;6314163;22;20398;-80
2024/02/02 01:47:13;;;;;;;8.70;8.10;;;8.20;25.20;;;;;;6315560;22;20539;-81
2024/02/02 01:49:39;;;;;;;8.70;7.90;;;8.20;25.20;;;;;;6294999;22;20424;-80
2024/02/02 01:52:05;;;;;;;8.83;8.30;;;8.30;25.40;;;;;;6324027;22;20165;-81
2024/02/02 01:54:31;;;;;;;8.50;7.70;;;8.40;25.10;;;;;;6324048;22;20619;-81
2024/02/02 01:56:57;;;;;;;8.40;7.80;;;8.40;24.10;;;;;;6325436;22;20372;-81
2024/02/02 01:59:24;;;;;;;7.90;7.17;;;8.40;24.70;;;;;;6333143;22;20364;-80
2024/02/02 02:01:50;;;;;;;8.40;7.80;;;8.60;24.30;;;;;;6335111;22;20386;-78
2024/02/02 02:04:16;;;;;;;9.90;9.30;;;8.80;23.80;;;;;;6307871;22;20419;-80
2024/02/02 02:06:41;;;;;;;10.03;9.10;;;8.90;23.60;;;;;;6334601;22;20138;-80
2024/02/02 02:09:10;;;;;;;9.43;8.83;;;9.00;23.30;;;;;;6335370;22;20400;-79
2024/02/02 02:11:35;;;;;;;8.20;7.70;;;9.10;23.30;;;;;;6334773;22;20177;-79
2024/02/02 02:14:01;;;;;;;8.17;7.67;;;9.20;22.80;;;;;;6308352;22;20396;-79
2024/02/02 02:16:27;;;;;;;8.10;7.53;;;9.10;22.80;;;;;;6307580;22;20146;-80
2024/02/02 02:18:52;;;;;;;8.40;7.80;;;9.00;22.90;;;;;;6298575;22;20182;-81
2024/02/02 02:21:27;;;;;;;8.10;7.57;;;8.60;23.00;;;;;;6292244;22;20152;-80
2024/02/02 02:23:53;;;;;;;11.27;8.17;;;8.40;23.60;;;;;;6315477;22;20142;-80
2024/02/02 02:26:20;;;;;;;8.33;7.73;;;8.20;23.60;;;;;;6286434;22;20881;-82
2024/02/02 02:28:47;;;;;;;8.03;7.50;;;8.20;24.00;;;;;;6287147;22;20397;-79
2024/02/02 02:31:14;;;;;;;9.50;8.80;;;8.10;24.40;;;;;;6314057;22;20736;-80
2024/02/02 02:33:40;;;;;;;9.27;8.40;;;7.90;24.70;;;;;;6314451;22;20379;-80
2024/02/02 02:36:06;;;;;;;9.13;8.50;;;7.80;25.40;;;;;;6313240;22;20404;-81
2024/02/02 02:38:31;;;;;;;10.30;9.33;;;7.60;25.50;;;;;;6284862;22;20487;-80
2024/02/02 02:40:57;;;;;;;9.63;8.93;;;7.50;26.00;;;;;;6313856;22;20146;-80
2024/02/02 02:43:22;;;;;;;9.70;8.90;;;7.40;26.00;;;;;;6313779;22;20169;-79
2024/02/02 02:45:48;;;;;;;9.27;8.53;;;7.40;26.20;;;;;;6312760;22;20165;-80
2024/02/02 02:48:13;;;;;;;9.33;8.47;;;7.40;26.50;;;;;;6313476;22;20264;-81
2024/02/02 02:50:39;;;;;;;9.67;8.60;;;7.40;26.60;;;;;;6285340;22;20628;-81
2024/02/02 02:53:04;;;;;;;9.57;8.67;;;7.40;26.30;;;;;;6284343;22;20157;-79
2024/02/02 02:55:30;;;;;;;9.13;8.53;;;7.60;26.30;;;;;;6313202;22;20150;-81
2024/02/02 02:57:55;;;;;;;9.57;8.83;;;7.70;25.70;;;;;;6313679;22;20176;-81
2024/02/02 03:00:27;;;;;;;8.50;7.90;;;7.80;25.20;;;;;;6286456;22;20221;-81
2024/02/02 03:02:53;;;;;;;8.63;8.10;;;7.70;25.30;;;;;;6313334;22;20180;-81
2024/02/02 03:05:19;;;;;;;8.93;8.30;;;7.80;25.60;;;;;;6283523;22;20883;-81
2024/02/02 03:07:44;;;;;;;9.53;8.83;;;8.00;25.00;;;;;;6286114;22;20439;-81
2024/02/02 03:10:10;;;;;;;8.97;8.33;;;8.00;24.60;;;;;;6285357;22;20185;-80
2024/02/02 03:12:35;;;;;;;8.10;7.53;;;7.90;25.10;;;;;;6285930;22;20151;-80
2024/02/02 03:15:01;;;;;;;9.37;8.67;;;7.90;25.00;;;;;;6313862;22;20475;-79
2024/02/02 03:17:26;;;;;;;8.83;8.33;;;7.90;25.00;;;;;;6286734;22;20161;-81
2024/02/02 03:19:52;;;;;;;9.13;8.53;;;8.00;25.00;;;;;;6319471;22;20241;-81
2024/02/02 03:22:17;;;;;;;8.87;8.27;;;8.00;24.50;;;;;;6316033;22;20142;-81
2024/02/02 03:24:43;;;;;;;9.37;8.80;;;8.00;24.60;;;;;;6313352;22;20588;-79
2024/02/02 03:27:08;;;;;;;9.53;8.90;;;7.90;25.20;;;;;;6284699;22;20164;-80
2024/02/02 03:29:34;;;;;;;9.30;8.70;;;7.80;25.40;;;;;;6285247;22;20177;-80
2024/02/02 03:31:59;;;;;;;10.07;9.17;;;7.60;25.90;;;;;;6312236;22;20146;-79
2024/02/02 03:34:25;;;;;;;9.90;9.20;;;7.60;26.40;;;;;;6312328;22;20150;-80
2024/02/02 03:36:50;;;;;;;9.67;8.80;;;7.60;26.60;;;;;;6312140;22;20146;-80
2024/02/02 03:39:17;;;;;;;9.10;8.50;;;7.70;26.60;;;;;;6284836;22;20248;-80
2024/02/02 03:41:43;;;;;;;10.00;9.30;;;7.70;26.90;;;;;;6284071;22;20268;-80
2024/02/02 03:44:08;;;;;;;9.17;8.43;;;7.80;26.20;;;;;;6283584;22;20384;-80
2024/02/02 03:46:34;;;;;;;9.43;8.73;;;8.00;26.20;;;;;;6311081;22;20146;-80
2024/02/02 03:48:59;;;;;;;10.10;9.40;;;7.80;26.50;;;;;;6310740;22;20225;-79
2024/02/02 03:51:25;;;;;;;10.13;9.47;;;7.80;27.10;;;;;;6310756;22;20695;-80
2024/02/02 03:53:50;;;;;;;10.20;9.57;;;7.70;27.40;;;;;;6284483;22;20596;-80
2024/02/02 03:56:16;;;;;;;9.80;9.10;;;7.70;27.90;;;;;;6282630;22;20176;-79
2024/02/02 03:58:41;;;;;;;10.40;9.60;;;7.60;28.00;;;;;;6307209;22;20166;-79
2024/02/02 04:01:07;;;;;;;9.70;9.20;;;7.70;28.30;;;;;;6279494;22;20233;-80
2024/02/02 04:03:32;;;;;;;9.90;9.30;;;7.70;28.30;;;;;;6307728;22;20153;-79
2024/02/02 04:05:59;;;;;;;10.80;10.20;;;7.50;29.00;;;;;;6278740;22;20477;-80
2024/02/02 04:08:25;;;;;;;10.03;9.43;;;7.50;29.70;;;;;;6279517;22;20501;-80
2024/02/02 04:10:50;;;;;;;10.03;9.43;;;7.40;30.00;;;;;;6306591;22;20522;-79
2024/02/02 04:13:16;;;;;;;11.20;10.50;;;7.40;30.30;;;;;;6279266;22;20150;-79
2024/02/02 04:15:41;;;;;;;11.87;11.13;;;7.50;30.40;;;;;;6306625;22;20169;-79
2024/02/02 04:18:07;;;;;;;11.60;10.80;;;7.50;30.40;;;;;;6307208;22;20166;-78
2024/02/02 04:20:33;;;;;;;10.30;9.50;;;7.50;30.40;;;;;;6279974;22;20150;-78
2024/02/02 04:22:58;;;;;;;11.53;10.70;;;7.50;30.40;;;;;;6307479;22;20645;-79
2024/02/02 04:25:24;;;;;;;11.57;10.43;;;7.60;30.10;;;;;;6306884;22;20142;-79
2024/02/02 04:27:49;;;;;;;10.20;9.67;;;7.70;30.10;;;;;;6307496;22;20153;-80
2024/02/02 04:30:15;;;;;;;10.43;9.73;;;7.80;29.80;;;;;;6279922;22;20174;-79
2024/02/02 04:32:41;;;;;;;10.00;9.40;;;7.90;29.60;;;;;;6308560;22;20142;-78
2024/02/02 04:35:06;;;;;;;11.17;10.40;;;8.00;29.40;;;;;;6309107;22;20376;-79
2024/02/02 04:37:32;;;;;;;10.77;10.17;;;8.00;29.40;;;;;;6283111;22;20146;-79
2024/02/02 04:39:57;;;;;;;9.70;9.17;;;8.10;29.70;;;;;;6313008;22;20223;-80
2024/02/02 04:42:23;;;;;;;10.97;10.47;;;8.20;29.60;;;;;;6312800;22;20152;-80
2024/02/02 04:44:48;;;;;;;10.73;10.23;;;8.30;28.70;;;;;;6285405;22;20620;-80
2024/02/02 04:47:14;;;;;;;9.70;9.00;;;8.40;28.40;;;;;;6284788;22;20165;-81
2024/02/02 04:49:39;;;;;;;9.97;9.37;;;8.50;28.60;;;;;;6313605;22;20557;-80
2024/02/02 04:52:05;;;;;;;10.77;9.93;;;8.50;28.40;;;;;;6285616;22;20607;-80
2024/02/02 04:54:31;;;;;;;11.17;10.57;;;8.40;28.70;;;;;;6282054;22;20150;-79
2024/02/02 04:56:56;;;;;;;11.33;10.83;;;8.40;29.00;;;;;;6282989;22;20379;-81
2024/02/02 04:59:23;;;;;;;10.47;9.87;;;8.30;29.40;;;;;;6284298;22;20221;-81
2024/02/02 05:01:48;;;;;;;10.60;10.00;;;8.20;29.80;;;;;;6314149;22;20166;-80
2024/02/02 05:04:14;;;;;;;10.63;10.03;;;8.20;30.00;;;;;;6287510;22;20426;-82
2024/02/02 05:06:40;;;;;;;11.00;10.40;;;8.20;30.60;;;;;;6318849;22;20161;-81
2024/02/02 05:09:05;;;;;;;11.40;10.80;;;8.30;30.00;;;;;;6285754;22;20170;-81
2024/02/02 05:11:31;;;;;;;10.67;10.17;;;8.40;30.00;;;;;;6313879;22;20166;-81
2024/02/02 05:13:56;;;;;;;10.70;10.00;;;8.40;30.10;;;;;;6312384;22;20515;-80
2024/02/02 05:16:22;;;;;;;10.77;10.23;;;8.40;30.00;;;;;;6283972;22;20195;-80
2024/02/02 05:18:47;;;;;;;11.17;10.57;;;8.40;30.40;;;;;;6312766;22;20169;-80
2024/02/02 05:21:13;;;;;;;11.40;10.80;;;8.60;30.40;;;;;;6284200;22;20158;-80
2024/02/02 05:23:38;;;;;;;10.70;10.20;;;8.60;30.00;;;;;;6312516;22;20478;-81
2024/02/02 05:26:04;;;;;;;10.63;10.13;;;8.60;29.80;;;;;;6285223;22;20164;-80
2024/02/02 05:28:30;;;;;;;12.07;11.57;;;8.70;30.00;;;;;;6311980;22;20240;-80
2024/02/02 05:30:55;;;;;;;10.97;10.47;;;8.70;29.80;;;;;;6311746;22;20745;-79
2024/02/02 05:33:21;;;;;;;11.40;10.80;;;8.60;30.00;;;;;;6313144;22;20138;-80
2024/02/02 05:35:46;;;;;;;11.00;10.30;;;8.60;30.30;;;;;;6311584;22;20486;-79
2024/02/02 05:38:12;;;;;;;11.07;10.47;;;8.60;30.80;;;;;;6284273;22;20261;-81
2024/02/02 05:40:37;;;;;;;11.87;11.17;;;8.70;30.20;;;;;;6311601;22;20154;-79
2024/02/02 05:43:03;;;;;;;11.43;10.83;;;8.70;30.00;;;;;;6283759;22;20592;-80
2024/02/02 05:45:29;;;;;;;11.53;10.93;;;8.70;30.50;;;;;;6281940;22;20165;-80
2024/02/02 05:47:54;;;;;;;12.80;12.00;;;8.60;30.20;;;;;;6281263;22;20740;-78
2024/02/02 05:50:26;;;;;;;11.77;11.17;;;8.50;30.90;;;;;;6308071;22;20170;-79
2024/02/02 05:52:51;;;;;;;11.07;10.57;;;8.40;31.10;;;;;;6281438;22;20146;-80
2024/02/02 05:55:17;;;;;;;11.80;11.20;;;8.40;31.10;;;;;;6309006;22;20851;-79
2024/02/02 05:57:44;;;;;;;11.37;10.77;;;8.40;31.10;;;;;;6310016;22;20229;-79
2024/02/02 06:00:10;;;;;;;11.80;11.00;;;8.50;31.20;;;;;;6283463;22;20154;-79
2024/02/02 06:02:36;;;;;;;11.70;10.87;;;8.70;31.40;;;;;;6310770;22;20388;-79
2024/02/02 06:05:02;;;;;;;12.53;11.73;;;8.90;30.30;;;;;;6313144;22;20427;-80
2024/02/02 06:07:28;;;;;;;12.03;11.43;;;9.10;30.00;;;;;;6282654;22;20169;-80
2024/02/02 06:09:53;;;;;;;11.07;10.37;;;9.10;29.60;;;;;;6283377;22;20205;-79
2024/02/02 06:12:19;;;;;;;11.07;10.50;;;9.10;29.10;;;;;;6285827;22;20157;-79
2024/02/02 06:14:44;;;;;;;12.60;11.80;;;9.10;29.30;;;;;;6286653;22;20154;-79
2024/02/02 06:17:10;;;;;;;23.20;21.10;;;9.20;29.20;;;;;;6314534;22;20169;-80
2024/02/02 06:19:36;;;;;;;22.30;20.23;;;9.10;28.60;;;;;;6287714;22;20170;-80
2024/02/02 06:22:02;;;;;;;11.93;11.13;;;9.20;28.90;;;;;;6312938;22;20378;-80
2024/02/02 06:24:27;;;;;;;12.20;11.50;;;9.20;28.90;;;;;;6315416;22;20146;-80
2024/02/02 06:26:53;;;;;;;12.50;11.40;;;9.10;29.20;;;;;;6316387;22;20205;-79
2024/02/02 06:29:19;;;;;;;11.93;11.23;;;9.00;29.50;;;;;;6313470;22;20165;-78
2024/02/02 06:31:44;;;;;;;12.20;11.60;;;9.10;29.40;;;;;;6285844;22;20516;-80
2024/02/02 06:34:10;;;;;;;12.13;11.63;;;8.90;29.60;;;;;;6289563;22;20154;-80
2024/02/02 06:36:35;;;;;;;11.03;10.50;;;8.90;29.80;;;;;;6314557;22;20142;-80
2024/02/02 06:39:01;;;;;;;12.30;11.70;;;8.90;30.20;;;;;;6293199;22;20194;-80
2024/02/02 06:41:27;;;;;;;12.50;11.87;;;9.00;29.90;;;;;;6317684;22;20157;-78
2024/02/02 06:43:52;;;;;;;11.33;10.73;;;9.10;29.80;;;;;;6312500;22;20153;-79
2024/02/02 06:46:18;;;;;;;12.13;11.37;;;9.10;30.00;;;;;;6285984;22;20158;-80
2024/02/02 06:48:44;;;;;;;12.17;11.37;;;9.10;29.70;;;;;;6314031;22;20399;-79
2024/02/02 06:51:10;;;;;;;11.23;10.60;;;9.10;29.80;;;;;;6286702;22;20228;-79
2024/02/02 06:53:36;;;;;;;13.83;12.60;;;8.90;29.90;;;;;;6285098;22;20385;-77
2024/02/02 06:56:07;;;;;;;13.10;12.40;;;8.90;30.00;;;;;;6281335;22;20154;-79
2024/02/02 06:58:41;;;;;;;13.93;13.13;;;8.80;31.10;;;;;;6314032;22;20400;-78
2024/02/02 07:01:10;;;;;;;13.80;13.00;;;8.70;31.40;;;;;;6311954;22;20367;-78
2024/02/02 07:03:36;;;;;;;13.43;12.50;;;8.60;31.80;;;;;;6312432;22;20480;-78
2024/02/02 07:06:04;;;;;;;14.47;13.67;;;8.60;32.50;;;;;;6308502;22;20419;-77
2024/02/02 07:08:33;;;;;;;14.50;13.43;;;8.50;32.90;;;;;;6305911;22;20506;-77
2024/02/02 07:11:19;;;;;;;12.77;12.07;;;8.50;33.10;;;;;;6308780;22;20415;-77
2024/02/02 07:13:51;;;;;;;12.17;11.47;;;8.30;33.30;;;;;;6280930;22;20368;-78
2024/02/02 07:16:28;;;;;;;12.97;12.27;;;8.20;33.50;;;;;;6308261;22;20442;-77
2024/02/02 07:18:54;;;;;;;13.77;12.97;;;8.30;33.70;;;;;;6281636;22;20400;-78
2024/02/02 07:21:24;;;;;;;13.53;12.83;;;8.30;33.90;;;;;;6307941;22;20933;-77
2024/02/02 07:23:50;;;;;;;12.50;11.80;;;8.40;34.20;;;;;;6302599;22;20165;-77
2024/02/02 07:26:26;;;;;;;12.00;11.30;;;8.50;34.50;;;;;;6305670;22;20361;-79
2024/02/02 07:28:51;;;;;;;12.70;11.73;;;8.80;33.80;;;;;;6252090;22;20181;-77
2024/02/02 07:31:33;;;;;;;13.00;12.10;;;8.90;32.30;;;;;;6277131;22;20761;-77
2024/02/02 07:34:21;;;;;;;13.80;12.90;;;8.90;32.00;;;;;;6304219;22;20651;-78
2024/02/02 07:36:46;;;;;;;12.53;11.80;;;9.00;32.00;;;;;;6249627;22;20384;-78
2024/02/02 07:39:28;;;;;;;13.10;12.20;;;9.00;31.60;;;;;;6304596;22;20512;-81
2024/02/02 07:41:53;;;;;;;13.27;12.40;;;8.90;32.20;;;;;;6303059;22;20126;-80
2024/02/02 07:44:19;;;;;;;12.67;12.07;;;8.80;32.00;;;;;;6323390;22;20538;-81
2024/02/02 07:46:44;;;;;;;12.87;12.07;;;8.70;32.80;;;;;;6318182;22;20165;-80
2024/02/02 07:49:10;;;;;;;12.37;11.73;;;8.60;33.00;;;;;;6319418;22;20184;-80
2024/02/02 07:51:37;;;;;;;13.97;13.17;;;8.70;33.40;;;;;;6295858;22;20186;-80
2024/02/02 07:54:03;;;;;;;14.77;13.80;;;8.90;33.10;;;;;;6293181;22;20150;-80
2024/02/02 07:56:28;;;;;;;13.30;12.30;;;9.00;31.60;;;;;;6317773;22;20394;-79
2024/02/02 07:58:58;;;;;;;12.90;12.00;;;9.10;31.70;;;;;;6291269;22;20177;-81
2024/02/02 08:01:24;;;;;;;12.73;11.93;;;9.20;31.80;;;;;;6320117;22;20165;-81
2024/02/02 08:03:49;;;;;;;12.50;11.77;;;9.30;31.20;;;;;;6293525;22;20896;-81
2024/02/02 08:06:15;;;;;;;12.67;11.93;;;9.30;31.90;;;;;;6295580;22;20165;-82
2024/02/02 08:08:41;;;;;;;13.63;12.73;;;9.10;31.20;;;;;;6292852;22;20182;-81
2024/02/02 08:11:07;;;;;;;13.17;12.40;;;9.00;31.60;;;;;;6295327;22;20209;-82
2024/02/02 08:13:32;;;;;;;12.77;11.90;;;9.20;31.80;;;;;;6296423;22;20409;-82
2024/02/02 08:15:59;;;;;;;11.57;10.97;;;9.40;31.60;;;;;;6295765;22;20150;-83
2024/02/02 08:18:24;;;;;;;12.57;11.87;;;9.40;31.10;;;;;;6323937;22;20180;-84
2024/02/02 08:20:50;;;;;;;13.00;12.20;;;9.40;30.60;;;;;;6291154;22;20392;-83
2024/02/02 08:23:18;;;;;;;13.73;12.73;;;9.50;30.60;;;;;;6288852;22;20150;-82
2024/02/02 08:25:44;;;;;;;13.00;12.20;;;9.60;30.70;;;;;;6289259;22;20224;-81
2024/02/02 08:28:09;;;;;;;13.07;12.03;;;9.70;30.10;;;;;;6291173;22;20384;-82
2024/02/02 08:30:35;;;;;;;11.67;11.07;;;9.70;29.90;;;;;;6289229;22;20194;-82
2024/02/02 08:33:00;;;;;;;13.53;12.63;;;9.70;30.00;;;;;;6316543;22;20146;-82
2024/02/02 08:35:28;;;;;;;11.83;11.13;;;9.70;29.60;;;;;;6318425;22;20142;-80
2024/02/02 08:37:59;;;;;;;12.10;11.50;;;9.60;30.30;;;;;;6289381;22;20237;-80
2024/02/02 08:40:38;;;;;;;11.80;11.20;;;9.70;30.70;;;;;;6316937;22;20482;-84
2024/02/02 08:43:15;;;;;;;10.73;10.13;;;9.90;30.30;;;;;;6290469;22;20383;-83
2024/02/02 08:46:03;;;;;;;12.03;11.43;;;9.90;29.30;;;;;;6292514;22;20368;-84
2024/02/02 08:48:39;;;;;;;12.30;11.33;;;9.70;30.00;;;;;;6294046;22;20506;-82
2024/02/02 08:51:34;;;;;;;11.90;11.30;;;9.70;30.00;;;;;;6313096;22;20431;-82
2024/02/02 08:54:06;;;;;;;12.30;11.53;;;9.80;30.50;;;;;;6292384;22;20383;-83
2024/02/02 08:56:31;;;;;;;12.07;11.27;;;9.90;30.10;;;;;;6292377;22;20384;-80
2024/02/02 08:58:57;;;;;;;12.17;11.47;;;9.90;29.30;;;;;;6291997;22;20396;-81
2024/02/02 09:01:38;;;;;;;11.80;10.93;;;9.80;29.80;;;;;;6293484;22;20176;-81
2024/02/02 09:04:05;;;;;;;12.10;11.40;;;9.90;29.80;;;;;;6321620;22;20345;-81
2024/02/02 09:06:42;;;;;;;12.77;11.90;;;9.70;30.00;;;;;;6292096;22;20403;-80
2024/02/02 09:09:11;;;;;;;12.47;11.97;;;9.60;30.50;;;;;;6293767;22;20408;-82
2024/02/02 09:11:37;;;;;;;11.47;10.83;;;9.60;30.70;;;;;;6320832;22;20435;-81
2024/02/02 09:14:14;;;;;;;12.57;11.70;;;9.50;32.00;;;;;;6295618;22;20380;-82
2024/02/02 09:16:58;;;;;;;12.47;11.60;;;9.50;32.00;;;;;;6323366;22;20353;-83
2024/02/02 09:19:30;;;;;;;11.40;10.73;;;9.60;31.60;;;;;;6318168;22;20708;-82
2024/02/02 09:22:02;;;;;;;12.73;12.00;;;9.60;31.40;;;;;;6317924;22;20372;-81
2024/02/02 09:24:39;;;;;;;12.50;11.77;;;9.80;31.30;;;;;;6291276;22;20391;-81
2024/02/02 09:27:09;;;;;;;13.40;12.70;;;9.90;30.60;;;;;;6313106;22;20376;-81
2024/02/02 09:29:44;;;;;;;12.93;11.87;;;10.00;29.70;;;;;;6308848;22;20999;-82
2024/02/02 09:32:15;;;;;;;11.43;10.83;;;10.20;29.40;;;;;;6309278;22;20774;-82
2024/02/02 09:34:43;;;;;;;12.77;12.17;;;10.30;28.70;;;;;;6311872;22;20349;-83
2024/02/02 09:37:56;;;;;;;13.03;12.33;;;10.20;28.80;;;;;;6283210;22;20384;-84
2024/02/02 09:40:28;;;;;;;12.87;11.90;;;10.00;29.50;;;;;;6224308;23;20428;-84
2024/02/02 09:43:07;;;;;;;13.37;12.10;;;9.90;30.50;;;;;;6281944;22;20407;-85
2024/02/02 09:45:50;;;;;;;11.47;10.87;;;9.90;30.60;;;;;;6283156;22;20671;-83
2024/02/02 09:48:24;;;;;;;13.20;12.30;;;9.90;31.10;;;;;;6316220;22;20701;-83
2024/02/02 09:51:22;;;;;;;11.87;11.30;;;9.80;30.80;;;;;;6290073;22;20424;-85
2024/02/02 09:54:21;;;;;;;12.33;11.53;;;9.90;31.00;;;;;;6284219;22;20384;-84
2024/02/02 09:57:02;;;;;;;12.00;11.20;;;10.00;30.20;;;;;;6309418;22;20357;-80
2024/02/02 09:59:48;;;;;;;12.27;11.57;;;10.20;29.40;;;;;;6292691;22;20396;-84
2024/02/02 10:02:20;;;;;;;12.00;11.27;;;10.30;28.70;;;;;;6293325;22;20369;-83
2024/02/02 10:05:09;;;;;;;12.40;11.80;;;10.40;28.40;;;;;;6285361;22;20399;-83
2024/02/02 10:08:16;;;;;;;12.30;11.60;;;10.50;28.20;;;;;;6282345;22;20384;-84
2024/02/02 10:11:26;;;;;;;11.50;10.90;;;10.50;28.10;;;;;;6310535;22;20489;-85
2024/02/02 10:18:09;;;;;;;12.20;11.60;;;10.70;28.20;;;;;;6157857;23;20409;-83
2024/02/02 10:21:16;;;;;;;11.40;10.70;;;10.90;27.70;;;;;;6312239;22;20830;-84
2024/02/02 10:24:06;;;;;;;11.20;10.60;;;10.60;27.50;;;;;;6286560;22;20740;-84
2024/02/02 10:27:03;;;;;;;10.07;9.37;;;10.50;28.40;;;;;;6284419;22;20384;-85
2024/02/02 10:29:56;;;;;;;11.20;10.50;;;10.60;28.10;;;;;;6285287;22;20427;-85
2024/02/02 10:33:08;;;;;;;11.03;10.43;;;10.40;27.90;;;;;;6284011;22;20715;-83
2024/02/02 10:39:43;;;;;;;10.63;10.10;;;10.00;28.30;;;;;;6277183;22;20461;-83
2024/02/02 10:42:34;;;;;;;9.90;9.40;;;9.80;29.80;;;;;;6312294;22;20384;-84
2024/02/02 10:45:26;;;;;;;10.37;9.47;;;9.70;30.00;;;;;;6312079;22;20810;-83
2024/02/02 10:48:18;;;;;;;9.40;8.80;;;9.60;30.30;;;;;;6299265;22;20391;-85
2024/02/02 10:51:27;;;;;;;9.20;8.80;;;9.70;30.00;;;;;;6288242;22;20416;-85
2024/02/02 10:54:09;;;;;;;9.80;9.30;;;9.90;29.90;;;;;;6284902;22;20705;-83
2024/02/02 10:57:12;;;;;;;9.43;9.03;;;10.00;28.80;;;;;;6284217;22;20353;-83
2024/02/02 10:59:56;;;;;;;8.83;8.43;;;10.00;28.10;;;;;;6295403;22;20892;-83
2024/02/02 11:02:31;;;;;;;9.23;8.83;;;10.00;27.90;;;;;;6314570;22;20356;-84
2024/02/02 11:05:16;;;;;;;9.23;8.83;;;10.00;27.40;;;;;;6287984;22;20376;-82
2024/02/02 11:07:50;;;;;;;9.43;9.03;;;10.10;27.30;;;;;;6310762;22;20369;-82
2024/02/02 11:10:33;;;;;;;8.80;8.40;;;10.10;27.20;;;;;;6309835;22;20419;-83
2024/02/02 11:13:39;;;;;;;9.93;9.33;;;10.00;26.70;;;;;;6282461;22;20368;-85
2024/02/02 11:16:42;;;;;;;8.90;8.50;;;10.20;26.90;;;;;;6282706;22;20361;-85
2024/02/02 11:19:34;;;;;;;7.70;7.40;;;10.30;26.10;;;;;;6282993;22;20396;-83
2024/02/02 11:22:47;;;;;;;7.17;6.87;;;10.40;25.30;;;;;;6282672;22;20455;-84
2024/02/02 11:25:29;;;;;;;7.83;7.43;;;10.40;24.30;;;;;;6185941;23;20462;-83
2024/02/02 11:28:05;;;;;;;7.53;7.13;;;10.50;24.80;;;;;;6283374;22;20379;-84
2024/02/02 11:31:11;;;;;;;6.93;6.53;;;10.40;24.30;;;;;;6285189;22;20907;-82
2024/02/02 11:34:17;;;;;;;6.57;6.27;;;10.40;24.00;;;;;;6292573;22;20503;-85
2024/02/02 11:40:35;;;;;;;7.53;7.13;;;10.40;23.40;;;;;;6260794;22;20404;-85
2024/02/02 11:46:43;;;;;;;8.10;7.60;;;10.60;23.60;;;;;;6207050;23;20425;-84
2024/02/02 11:49:22;;;;;;;8.00;7.70;;;10.80;22.70;;;;;;6225638;23;20398;-82
2024/02/02 11:51:56;;;;;;;7.30;7.07;;;10.90;22.70;;;;;;6222604;23;20410;-83
2024/02/02 11:54:30;;;;;;;7.83;7.33;;;10.90;21.80;;;;;;6223246;23;20382;-83
2024/02/02 11:57:06;;;;;;;8.07;7.77;;;11.00;21.40;;;;;;6221875;23;20370;-83
2024/02/02 12:00:25;;;;;;;7.90;7.60;;;11.00;21.70;;;;;;6220802;23;20406;-83
2024/02/02 12:20:41;;;;;;;7.40;7.10;;;11.40;19.90;;;;;;6192203;23;20391;-83
2024/02/02 12:30:46;;;;;;;7.30;7.00;;;11.40;18.20;;;;;;6066845;23;20546;-82
2024/02/02 12:33:35;;;;;;;6.37;6.17;;;11.40;17.90;;;;;;6069085;23;20380;-82
2024/02/02 13:00:55;;;;;;;8.13;7.83;;;11.80;16.10;;;;;;6087748;23;20487;-85
2024/02/02 13:11:00;;;;;;;6.80;6.40;;;12.20;17.60;;;;;;6102984;23;20449;-84
2024/02/02 13:21:53;;;;;;;7.80;7.40;;;12.20;15.40;;;;;;6101561;23;20411;-83
2024/02/02 13:28:48;;;;;;;7.60;7.33;;;12.00;14.90;;;;;;6029024;23;20413;-84
2024/02/02 13:37:43;;;;;;;6.40;6.20;;;11.90;15.00;;;;;;6044709;23;20379;-84
2024/02/02 13:40:39;;;;;;;7.03;6.83;;;11.80;15.00;;;;;;6226615;22;20450;-80
2024/02/02 13:43:14;;;;;;;6.90;6.70;;;11.90;14.70;;;;;;6261204;22;20377;-81
2024/02/02 13:45:47;;;;;;;6.80;6.60;;;11.90;14.60;;;;;;6279799;22;20351;-81
2024/02/02 13:49:05;;;;;;;7.00;6.70;;;11.90;14.60;;;;;;6275349;22;20750;-82
2024/02/02 13:51:36;;;;;;;6.90;6.70;;;12.00;15.10;;;;;;6231136;22;20437;-83
2024/02/02 13:54:28;;;;;;;7.13;6.80;;;12.10;15.00;;;;;;6272644;22;20392;-81
2024/02/02 13:56:55;;;;;;;5.97;5.77;;;12.10;13.70;;;;;;6243265;22;20393;-82
2024/02/02 14:00:11;;;;;;;6.60;6.40;;;12.10;13.70;;;;;;6257447;22;20405;-83
2024/02/02 14:03:25;;;;;;;6.50;6.20;;;12.10;13.50;;;;;;6272201;22;20851;-78
2024/02/02 14:06:07;;;;;;;6.33;6.13;;;12.00;12.60;;;;;;6272308;22;20896;-81
2024/02/02 14:09:39;;;;;;;6.70;6.30;;;12.10;13.20;;;;;;6276607;22;20416;-81
2024/02/02 14:12:42;;;;;;;6.20;6.00;;;12.10;13.30;;;;;;6152277;23;20464;-82
2024/02/02 14:15:41;;;;;;;6.70;6.30;;;12.10;13.20;;;;;;6131081;23;20487;-78
2024/02/02 14:18:12;;;;;;;8.17;7.53;;;12.20;12.20;;;;;;6124682;23;20384;-79
2024/02/02 14:20:50;;;;;;;7.07;6.87;;;12.20;12.40;;;;;;6130751;23;20370;-81
2024/02/02 14:23:16;;;;;;;8.83;8.23;;;12.30;14.00;;;;;;6157429;23;20369;-79
2024/02/02 14:25:42;;;;;;;7.97;7.67;;;12.30;12.80;;;;;;6190044;22;20401;-80
2024/02/02 14:28:48;;;;;;;7.67;7.37;;;12.30;12.70;;;;;;6279595;22;20173;-80
2024/02/02 14:31:35;;;;;;;6.53;6.33;;;12.20;12.70;;;;;;6252753;22;20425;-81
2024/02/02 14:34:43;;;;;;;6.30;6.10;;;12.20;12.30;;;;;;6277947;22;20389;-82
2024/02/02 14:37:11;;;;;;;6.33;6.03;;;12.10;12.20;;;;;;6274905;22;20389;-79
2024/02/02 14:39:37;;;;;;;6.10;5.87;;;12.00;12.30;;;;;;6278793;22;20837;-81
2024/02/02 14:42:03;;;;;;;6.80;6.50;;;12.10;12.30;;;;;;6250065;22;20863;-78